Terminal Aerodrome Forecast
Issued by NWS Brownsville, TX

Home | Current Version | Previous Version | Text Only | Print | Product List | Glossary On
Versions: 1 2 3 4 5 6 7 8 9 10 11 12 13 14 15 16 17 18 19 20 21 22 23
000
FTUS44 KBRO 301120
TAFHRL
TAF
KHRL 301120Z 3012/3112 12003KT 3SM BR SKC
     FM301500 14011KT P6SM OVC050
     FM310000 12011KT P6SM BKN250=

USA.gov is the U.S. government's official web portal to all federal, state and local government web resources and services.